sensor_id;sensor_type;location;lat;lon;timestamp;P1;durP1;ratioP1;P2;durP2;ratioP2
15449;SDS011;7826;49.784;9.934;2023-11-21T00:01:59;20.03;;;10.40;;
15449;SDS011;7826;49.784;9.934;2023-11-21T00:04:25;24.80;;;9.80;;
15449;SDS011;7826;49.784;9.934;2023-11-21T00:06:54;19.97;;;8.63;;
15449;SDS011;7826;49.784;9.934;2023-11-21T00:09:20;23.33;;;8.73;;
15449;SDS011;7826;49.784;9.934;2023-11-21T00:11:47;22.33;;;8.80;;
15449;SDS011;7826;49.784;9.934;2023-11-21T00:14:14;17.50;;;8.57;;
15449;SDS011;7826;49.784;9.934;2023-11-21T00:16:43;16.43;;;8.07;;
15449;SDS011;7826;49.784;9.934;2023-11-21T00:19:09;17.57;;;8.40;;
15449;SDS011;7826;49.784;9.934;2023-11-21T00:21:36;25.57;;;8.43;;
15449;SDS011;7826;49.784;9.934;2023-11-21T00:24:03;18.13;;;8.13;;
15449;SDS011;7826;49.784;9.934;2023-11-21T00:26:30;14.80;;;7.70;;
15449;SDS011;7826;49.784;9.934;2023-11-21T00:29:02;16.47;;;7.83;;
15449;SDS011;7826;49.784;9.934;2023-11-21T00:31:28;12.17;;;7.27;;
15449;SDS011;7826;49.784;9.934;2023-11-21T00:33:56;12.70;;;7.57;;
15449;SDS011;7826;49.784;9.934;2023-11-21T00:36:23;7.90;;;6.00;;
15449;SDS011;7826;49.784;9.934;2023-11-21T00:38:51;8.30;;;5.40;;
15449;SDS011;7826;49.784;9.934;2023-11-21T00:41:18;8.67;;;5.07;;
15449;SDS011;7826;49.784;9.934;2023-11-21T00:43:44;7.57;;;4.27;;
15449;SDS011;7826;49.784;9.934;2023-11-21T00:46:11;5.57;;;4.00;;
15449;SDS011;7826;49.784;9.934;2023-11-21T00:48:38;4.70;;;3.23;;
15449;SDS011;7826;49.784;9.934;2023-11-21T00:51:04;4.23;;;3.10;;
15449;SDS011;7826;49.784;9.934;2023-11-21T00:53:32;4.40;;;2.53;;
15449;SDS011;7826;49.784;9.934;2023-11-21T00:55:58;4.00;;;2.60;;
15449;SDS011;7826;49.784;9.934;2023-11-21T00:58:24;2.40;;;2.20;;
15449;SDS011;7826;49.784;9.934;2023-11-21T01:00:51;3.40;;;2.50;;
15449;SDS011;7826;49.784;9.934;2023-11-21T01:03:17;5.97;;;3.20;;
15449;SDS011;7826;49.784;9.934;2023-11-21T01:05:44;3.80;;;3.00;;
15449;SDS011;7826;49.784;9.934;2023-11-21T01:08:11;5.43;;;3.40;;
15449;SDS011;7826;49.784;9.934;2023-11-21T01:10:38;4.07;;;3.40;;
15449;SDS011;7826;49.784;9.934;2023-11-21T01:13:04;4.73;;;3.80;;
15449;SDS011;7826;49.784;9.934;2023-11-21T01:15:31;4.63;;;3.63;;
15449;SDS011;7826;49.784;9.934;2023-11-21T01:17:58;4.83;;;4.27;;
15449;SDS011;7826;49.784;9.934;2023-11-21T01:20:24;6.33;;;4.60;;
15449;SDS011;7826;49.784;9.934;2023-11-21T01:22:51;7.50;;;4.80;;
15449;SDS011;7826;49.784;9.934;2023-11-21T01:25:17;5.63;;;4.60;;
15449;SDS011;7826;49.784;9.934;2023-11-21T01:27:44;8.43;;;4.90;;
15449;SDS011;7826;49.784;9.934;2023-11-21T01:30:10;7.53;;;5.50;;
15449;SDS011;7826;49.784;9.934;2023-11-21T01:32:37;9.30;;;5.33;;
15449;SDS011;7826;49.784;9.934;2023-11-21T01:35:03;6.97;;;5.07;;
15449;SDS011;7826;49.784;9.934;2023-11-21T01:37:32;8.03;;;5.10;;
15449;SDS011;7826;49.784;9.934;2023-11-21T01:39:59;8.33;;;5.10;;
15449;SDS011;7826;49.784;9.934;2023-11-21T01:42:27;10.03;;;5.80;;
15449;SDS011;7826;49.784;9.934;2023-11-21T01:44:55;6.50;;;5.27;;
15449;SDS011;7826;49.784;9.934;2023-11-21T01:47:21;9.00;;;6.07;;
15449;SDS011;7826;49.784;9.934;2023-11-21T01:49:48;10.17;;;6.37;;
15449;SDS011;7826;49.784;9.934;2023-11-21T01:52:14;10.77;;;6.60;;
15449;SDS011;7826;49.784;9.934;2023-11-21T01:54:41;8.83;;;5.70;;
15449;SDS011;7826;49.784;9.934;2023-11-21T01:57:08;7.87;;;5.50;;
15449;SDS011;7826;49.784;9.934;2023-11-21T01:59:36;9.23;;;5.63;;
15449;SDS011;7826;49.784;9.934;2023-11-21T02:02:06;8.00;;;5.90;;
15449;SDS011;7826;49.784;9.934;2023-11-21T02:04:33;8.33;;;6.23;;
15449;SDS011;7826;49.784;9.934;2023-11-21T02:07:00;8.77;;;6.23;;
15449;SDS011;7826;49.784;9.934;2023-11-21T02:09:27;11.70;;;6.80;;
15449;SDS011;7826;49.784;9.934;2023-11-21T02:11:56;9.67;;;6.17;;
15449;SDS011;7826;49.784;9.934;2023-11-21T02:14:25;9.87;;;6.50;;
15449;SDS011;7826;49.784;9.934;2023-11-21T02:16:54;10.17;;;6.53;;
15449;SDS011;7826;49.784;9.934;2023-11-21T02:19:23;8.43;;;6.33;;
15449;SDS011;7826;49.784;9.934;2023-11-21T02:21:52;11.57;;;7.20;;
15449;SDS011;7826;49.784;9.934;2023-11-21T02:24:19;10.60;;;6.97;;
15449;SDS011;7826;49.784;9.934;2023-11-21T02:26:50;10.07;;;6.77;;
15449;SDS011;7826;49.784;9.934;2023-11-21T02:29:20;11.43;;;7.30;;
15449;SDS011;7826;49.784;9.934;2023-11-21T02:31:54;12.90;;;7.63;;
15449;SDS011;7826;49.784;9.934;2023-11-21T02:34:21;13.37;;;8.90;;
15449;SDS011;7826;49.784;9.934;2023-11-21T02:36:48;12.27;;;8.33;;
15449;SDS011;7826;49.784;9.934;2023-11-21T02:39:18;12.33;;;8.17;;
15449;SDS011;7826;49.784;9.934;2023-11-21T02:41:47;12.90;;;8.67;;
15449;SDS011;7826;49.784;9.934;2023-11-21T02:44:14;12.70;;;9.10;;
15449;SDS011;7826;49.784;9.934;2023-11-21T02:46:41;12.13;;;8.57;;
15449;SDS011;7826;49.784;9.934;2023-11-21T02:49:07;13.80;;;9.23;;
15449;SDS011;7826;49.784;9.934;2023-11-21T02:51:36;13.77;;;9.57;;
15449;SDS011;7826;49.784;9.934;2023-11-21T02:54:05;13.00;;;9.10;;
15449;SDS011;7826;49.784;9.934;2023-11-21T02:56:32;13.93;;;9.20;;
15449;SDS011;7826;49.784;9.934;2023-11-21T02:58:59;13.30;;;9.40;;
15449;SDS011;7826;49.784;9.934;2023-11-21T03:01:26;12.10;;;8.20;;
15449;SDS011;7826;49.784;9.934;2023-11-21T03:03:54;12.03;;;7.50;;
15449;SDS011;7826;49.784;9.934;2023-11-21T03:06:21;10.40;;;7.33;;
15449;SDS011;7826;49.784;9.934;2023-11-21T03:08:49;12.10;;;7.47;;
15449;SDS011;7826;49.784;9.934;2023-11-21T03:11:15;12.13;;;6.93;;
15449;SDS011;7826;49.784;9.934;2023-11-21T03:13:54;11.83;;;8.00;;
15449;SDS011;7826;49.784;9.934;2023-11-21T03:16:20;11.97;;;8.47;;
15449;SDS011;7826;49.784;9.934;2023-11-21T03:18:47;14.00;;;8.73;;
15449;SDS011;7826;49.784;9.934;2023-11-21T03:21:13;11.30;;;8.63;;
15449;SDS011;7826;49.784;9.934;2023-11-21T03:23:40;16.30;;;8.70;;
15449;SDS011;7826;49.784;9.934;2023-11-21T03:26:06;12.07;;;8.30;;
15449;SDS011;7826;49.784;9.934;2023-11-21T03:28:38;12.43;;;8.60;;
15449;SDS011;7826;49.784;9.934;2023-11-21T03:31:05;12.70;;;8.47;;
15449;SDS011;7826;49.784;9.934;2023-11-21T03:33:32;14.03;;;8.47;;
15449;SDS011;7826;49.784;9.934;2023-11-21T03:35:58;11.00;;;7.83;;
15449;SDS011;7826;49.784;9.934;2023-11-21T03:38:25;10.93;;;8.30;;
15449;SDS011;7826;49.784;9.934;2023-11-21T03:40:51;13.80;;;8.60;;
15449;SDS011;7826;49.784;9.934;2023-11-21T03:43:17;12.07;;;8.20;;
15449;SDS011;7826;49.784;9.934;2023-11-21T03:45:44;14.67;;;9.07;;
15449;SDS011;7826;49.784;9.934;2023-11-21T03:48:12;11.43;;;8.37;;
15449;SDS011;7826;49.784;9.934;2023-11-21T03:50:39;12.10;;;8.20;;
15449;SDS011;7826;49.784;9.934;2023-11-21T03:53:05;11.80;;;8.50;;
15449;SDS011;7826;49.784;9.934;2023-11-21T03:55:31;14.87;;;9.20;;
15449;SDS011;7826;49.784;9.934;2023-11-21T03:57:58;13.10;;;9.03;;
15449;SDS011;7826;49.784;9.934;2023-11-21T04:00:25;15.90;;;9.87;;
15449;SDS011;7826;49.784;9.934;2023-11-21T04:02:54;14.10;;;8.60;;
15449;SDS011;7826;49.784;9.934;2023-11-21T04:05:21;13.17;;;8.57;;
15449;SDS011;7826;49.784;9.934;2023-11-21T04:07:50;15.73;;;9.67;;
15449;SDS011;7826;49.784;9.934;2023-11-21T04:10:17;14.63;;;9.53;;
15449;SDS011;7826;49.784;9.934;2023-11-21T04:12:44;14.47;;;9.40;;
15449;SDS011;7826;49.784;9.934;2023-11-21T04:15:11;14.07;;;9.13;;
15449;SDS011;7826;49.784;9.934;2023-11-21T04:17:39;15.40;;;9.27;;
15449;SDS011;7826;49.784;9.934;2023-11-21T04:20:07;16.10;;;10.00;;
15449;SDS011;7826;49.784;9.934;2023-11-21T04:22:43;15.97;;;9.40;;
15449;SDS011;7826;49.784;9.934;2023-11-21T04:25:10;17.03;;;9.83;;
15449;SDS011;7826;49.784;9.934;2023-11-21T04:27:40;14.73;;;9.70;;
15449;SDS011;7826;49.784;9.934;2023-11-21T04:30:12;14.53;;;8.90;;
15449;SDS011;7826;49.784;9.934;2023-11-21T04:32:40;14.57;;;9.83;;
15449;SDS011;7826;49.784;9.934;2023-11-21T04:35:08;15.60;;;10.30;;
15449;SDS011;7826;49.784;9.934;2023-11-21T04:37:35;17.17;;;10.37;;
15449;SDS011;7826;49.784;9.934;2023-11-21T04:40:03;18.00;;;11.30;;
15449;SDS011;7826;49.784;9.934;2023-11-21T04:42:34;16.27;;;9.90;;
15449;SDS011;7826;49.784;9.934;2023-11-21T04:45:01;18.63;;;10.77;;
15449;SDS011;7826;49.784;9.934;2023-11-21T04:47:33;17.40;;;10.40;;
15449;SDS011;7826;49.784;9.934;2023-11-21T04:50:00;17.00;;;10.53;;
15449;SDS011;7826;49.784;9.934;2023-11-21T04:52:26;19.17;;;11.30;;
15449;SDS011;7826;49.784;9.934;2023-11-21T04:54:53;18.57;;;11.73;;
15449;SDS011;7826;49.784;9.934;2023-11-21T04:57:20;16.50;;;10.93;;
15449;SDS011;7826;49.784;9.934;2023-11-21T04:59:50;18.47;;;12.27;;
15449;SDS011;7826;49.784;9.934;2023-11-21T05:02:17;23.87;;;10.93;;
15449;SDS011;7826;49.784;9.934;2023-11-21T05:04:45;17.57;;;11.13;;
15449;SDS011;7826;49.784;9.934;2023-11-21T05:07:11;17.67;;;11.47;;
15449;SDS011;7826;49.784;9.934;2023-11-21T05:09:44;18.60;;;11.37;;
15449;SDS011;7826;49.784;9.934;2023-11-21T05:12:12;17.63;;;12.37;;
15449;SDS011;7826;49.784;9.934;2023-11-21T05:14:40;19.70;;;11.70;;
15449;SDS011;7826;49.784;9.934;2023-11-21T05:17:07;20.93;;;11.70;;
15449;SDS011;7826;49.784;9.934;2023-11-21T05:19:34;17.73;;;12.20;;
15449;SDS011;7826;49.784;9.934;2023-11-21T05:22:01;20.07;;;12.30;;
15449;SDS011;7826;49.784;9.934;2023-11-21T05:24:28;18.73;;;11.43;;
15449;SDS011;7826;49.784;9.934;2023-11-21T05:26:55;17.30;;;10.90;;
15449;SDS011;7826;49.784;9.934;2023-11-21T05:29:22;21.17;;;11.73;;
15449;SDS011;7826;49.784;9.934;2023-11-21T05:31:49;18.70;;;11.30;;
15449;SDS011;7826;49.784;9.934;2023-11-21T05:34:15;21.97;;;13.00;;
15449;SDS011;7826;49.784;9.934;2023-11-21T05:36:43;17.50;;;10.73;;
15449;SDS011;7826;49.784;9.934;2023-11-21T05:39:11;16.47;;;11.03;;
15449;SDS011;7826;49.784;9.934;2023-11-21T05:41:38;18.20;;;10.90;;
15449;SDS011;7826;49.784;9.934;2023-11-21T05:44:04;18.80;;;10.60;;
15449;SDS011;7826;49.784;9.934;2023-11-21T05:46:33;17.87;;;10.53;;
15449;SDS011;7826;49.784;9.934;2023-11-21T05:49:00;20.43;;;11.57;;
15449;SDS011;7826;49.784;9.934;2023-11-21T05:51:26;17.67;;;10.50;;
15449;SDS011;7826;49.784;9.934;2023-11-21T05:53:53;16.30;;;10.30;;
15449;SDS011;7826;49.784;9.934;2023-11-21T05:56:20;16.80;;;10.57;;
15449;SDS011;7826;49.784;9.934;2023-11-21T05:58:46;17.57;;;10.20;;
15449;SDS011;7826;49.784;9.934;2023-11-21T06:01:13;13.57;;;9.83;;
15449;SDS011;7826;49.784;9.934;2023-11-21T06:03:40;16.83;;;10.53;;
15449;SDS011;7826;49.784;9.934;2023-11-21T06:06:06;16.40;;;9.70;;
15449;SDS011;7826;49.784;9.934;2023-11-21T06:08:33;17.43;;;10.37;;
15449;SDS011;7826;49.784;9.934;2023-11-21T06:10:59;15.57;;;10.00;;
15449;SDS011;7826;49.784;9.934;2023-11-21T06:13:26;20.37;;;11.00;;
15449;SDS011;7826;49.784;9.934;2023-11-21T06:15:53;19.70;;;10.53;;
15449;SDS011;7826;49.784;9.934;2023-11-21T06:18:20;18.20;;;10.53;;
15449;SDS011;7826;49.784;9.934;2023-11-21T06:20:47;18.43;;;10.70;;
15449;SDS011;7826;49.784;9.934;2023-11-21T06:23:13;16.60;;;10.30;;
15449;SDS011;7826;49.784;9.934;2023-11-21T06:25:40;16.87;;;10.57;;
15449;SDS011;7826;49.784;9.934;2023-11-21T06:28:06;16.50;;;10.47;;
15449;SDS011;7826;49.784;9.934;2023-11-21T06:30:33;17.77;;;11.27;;
15449;SDS011;7826;49.784;9.934;2023-11-21T06:32:59;17.77;;;11.33;;
15449;SDS011;7826;49.784;9.934;2023-11-21T06:35:26;17.73;;;11.10;;
15449;SDS011;7826;49.784;9.934;2023-11-21T06:37:56;18.40;;;10.50;;
15449;SDS011;7826;49.784;9.934;2023-11-21T06:40:23;16.57;;;10.50;;
15449;SDS011;7826;49.784;9.934;2023-11-21T06:42:50;18.17;;;10.73;;
15449;SDS011;7826;49.784;9.934;2023-11-21T06:45:17;16.60;;;9.63;;
15449;SDS011;7826;49.784;9.934;2023-11-21T06:47:44;17.13;;;10.23;;
15449;SDS011;7826;49.784;9.934;2023-11-21T06:50:10;19.57;;;11.17;;
15449;SDS011;7826;49.784;9.934;2023-11-21T06:52:37;16.23;;;10.00;;
15449;SDS011;7826;49.784;9.934;2023-11-21T06:55:04;16.67;;;9.50;;
15449;SDS011;7826;49.784;9.934;2023-11-21T06:57:34;16.60;;;10.03;;
15449;SDS011;7826;49.784;9.934;2023-11-21T07:00:00;15.97;;;9.53;;
15449;SDS011;7826;49.784;9.934;2023-11-21T07:02:27;13.70;;;9.10;;
15449;SDS011;7826;49.784;9.934;2023-11-21T07:04:54;14.83;;;9.37;;
15449;SDS011;7826;49.784;9.934;2023-11-21T07:07:21;16.93;;;9.33;;
15449;SDS011;7826;49.784;9.934;2023-11-21T07:09:47;15.87;;;9.43;;
15449;SDS011;7826;49.784;9.934;2023-11-21T07:12:15;14.90;;;9.70;;
15449;SDS011;7826;49.784;9.934;2023-11-21T07:14:41;15.33;;;9.17;;
15449;SDS011;7826;49.784;9.934;2023-11-21T07:17:11;18.03;;;9.90;;
15449;SDS011;7826;49.784;9.934;2023-11-21T07:19:38;16.30;;;9.53;;
15449;SDS011;7826;49.784;9.934;2023-11-21T07:22:05;15.10;;;8.93;;
15449;SDS011;7826;49.784;9.934;2023-11-21T07:24:32;15.30;;;9.10;;
15449;SDS011;7826;49.784;9.934;2023-11-21T07:26:58;14.13;;;9.53;;
15449;SDS011;7826;49.784;9.934;2023-11-21T07:29:25;15.23;;;9.33;;
15449;SDS011;7826;49.784;9.934;2023-11-21T07:31:52;12.47;;;8.60;;
15449;SDS011;7826;49.784;9.934;2023-11-21T07:34:20;12.83;;;8.20;;
15449;SDS011;7826;49.784;9.934;2023-11-21T07:36:47;12.10;;;8.17;;
15449;SDS011;7826;49.784;9.934;2023-11-21T07:39:13;15.00;;;9.17;;
15449;SDS011;7826;49.784;9.934;2023-11-21T07:41:42;16.10;;;8.57;;
15449;SDS011;7826;49.784;9.934;2023-11-21T07:44:14;12.93;;;8.80;;
15449;SDS011;7826;49.784;9.934;2023-11-21T07:46:42;12.97;;;8.23;;
15449;SDS011;7826;49.784;9.934;2023-11-21T07:49:08;11.67;;;8.00;;
15449;SDS011;7826;49.784;9.934;2023-11-21T07:51:35;12.63;;;7.93;;
15449;SDS011;7826;49.784;9.934;2023-11-21T07:54:02;12.40;;;8.37;;
15449;SDS011;7826;49.784;9.934;2023-11-21T07:56:28;12.47;;;8.77;;
15449;SDS011;7826;49.784;9.934;2023-11-21T07:58:55;11.93;;;8.10;;
15449;SDS011;7826;49.784;9.934;2023-11-21T08:01:21;14.60;;;7.87;;
15449;SDS011;7826;49.784;9.934;2023-11-21T08:03:48;13.00;;;8.10;;
15449;SDS011;7826;49.784;9.934;2023-11-21T08:06:17;14.80;;;8.67;;
15449;SDS011;7826;49.784;9.934;2023-11-21T08:08:44;15.27;;;8.20;;
15449;SDS011;7826;49.784;9.934;2023-11-21T08:11:10;14.33;;;8.07;;
15449;SDS011;7826;49.784;9.934;2023-11-21T08:13:38;14.13;;;8.63;;
15449;SDS011;7826;49.784;9.934;2023-11-21T08:16:05;13.27;;;8.27;;
15449;SDS011;7826;49.784;9.934;2023-11-21T08:18:33;12.03;;;8.67;;
15449;SDS011;7826;49.784;9.934;2023-11-21T08:21:00;13.37;;;8.67;;
15449;SDS011;7826;49.784;9.934;2023-11-21T08:23:26;12.97;;;8.23;;
15449;SDS011;7826;49.784;9.934;2023-11-21T08:25:54;12.87;;;8.67;;
15449;SDS011;7826;49.784;9.934;2023-11-21T08:28:21;14.60;;;8.17;;
15449;SDS011;7826;49.784;9.934;2023-11-21T08:30:52;12.20;;;7.40;;
15449;SDS011;7826;49.784;9.934;2023-11-21T08:33:20;12.07;;;7.37;;
15449;SDS011;7826;49.784;9.934;2023-11-21T08:35:46;11.47;;;7.17;;
15449;SDS011;7826;49.784;9.934;2023-11-21T08:38:12;10.07;;;6.77;;
15449;SDS011;7826;49.784;9.934;2023-11-21T08:40:39;9.77;;;6.60;;
15449;SDS011;7826;49.784;9.934;2023-11-21T08:43:06;9.97;;;6.53;;
15449;SDS011;7826;49.784;9.934;2023-11-21T08:45:32;10.43;;;6.53;;
15449;SDS011;7826;49.784;9.934;2023-11-21T08:48:00;9.00;;;5.77;;
15449;SDS011;7826;49.784;9.934;2023-11-21T08:50:27;9.00;;;6.10;;
15449;SDS011;7826;49.784;9.934;2023-11-21T08:52:54;9.27;;;6.87;;
15449;SDS011;7826;49.784;9.934;2023-11-21T08:55:20;9.30;;;5.93;;
15449;SDS011;7826;49.784;9.934;2023-11-21T08:57:48;8.47;;;5.80;;
15449;SDS011;7826;49.784;9.934;2023-11-21T09:00:14;8.37;;;5.80;;
15449;SDS011;7826;49.784;9.934;2023-11-21T09:02:43;8.93;;;6.00;;
15449;SDS011;7826;49.784;9.934;2023-11-21T09:05:10;8.30;;;5.83;;
15449;SDS011;7826;49.784;9.934;2023-11-21T09:07:39;9.77;;;5.93;;
15449;SDS011;7826;49.784;9.934;2023-11-21T09:10:07;9.00;;;5.90;;
15449;SDS011;7826;49.784;9.934;2023-11-21T09:12:35;9.67;;;6.10;;
15449;SDS011;7826;49.784;9.934;2023-11-21T09:15:06;8.57;;;5.53;;
15449;SDS011;7826;49.784;9.934;2023-11-21T09:17:33;7.80;;;5.50;;
15449;SDS011;7826;49.784;9.934;2023-11-21T09:20:00;7.80;;;5.43;;
15449;SDS011;7826;49.784;9.934;2023-11-21T09:22:29;7.37;;;5.00;;
15449;SDS011;7826;49.784;9.934;2023-11-21T09:24:56;6.60;;;4.73;;
15449;SDS011;7826;49.784;9.934;2023-11-21T09:27:23;7.53;;;4.90;;
15449;SDS011;7826;49.784;9.934;2023-11-21T09:29:51;7.40;;;4.80;;
15449;SDS011;7826;49.784;9.934;2023-11-21T09:32:19;8.00;;;4.87;;
15449;SDS011;7826;49.784;9.934;2023-11-21T09:34:48;5.63;;;4.30;;
15449;SDS011;7826;49.784;9.934;2023-11-21T09:37:15;5.17;;;4.13;;
15449;SDS011;7826;49.784;9.934;2023-11-21T09:39:42;6.90;;;4.50;;
15449;SDS011;7826;49.784;9.934;2023-11-21T09:44:58;5.87;;;4.20;;
15449;SDS011;7826;49.784;9.934;2023-11-21T09:47:32;5.93;;;4.07;;
15449;SDS011;7826;49.784;9.934;2023-11-21T09:50:01;5.90;;;4.10;;
15449;SDS011;7826;49.784;9.934;2023-11-21T09:52:28;5.77;;;4.40;;
15449;SDS011;7826;49.784;9.934;2023-11-21T09:54:56;6.17;;;4.67;;
15449;SDS011;7826;49.784;9.934;2023-11-21T09:57:26;7.13;;;4.30;;
15449;SDS011;7826;49.784;9.934;2023-11-21T09:59:53;5.93;;;4.50;;
15449;SDS011;7826;49.784;9.934;2023-11-21T10:02:22;4.83;;;3.87;;
15449;SDS011;7826;49.784;9.934;2023-11-21T10:04:52;5.87;;;4.37;;
15449;SDS011;7826;49.784;9.934;2023-11-21T10:07:20;8.50;;;5.00;;
15449;SDS011;7826;49.784;9.934;2023-11-21T10:09:47;6.97;;;4.70;;
15449;SDS011;7826;49.784;9.934;2023-11-21T10:12:16;6.43;;;4.53;;
15449;SDS011;7826;49.784;9.934;2023-11-21T10:14:46;6.00;;;4.30;;
15449;SDS011;7826;49.784;9.934;2023-11-21T10:17:15;6.53;;;4.53;;
15449;SDS011;7826;49.784;9.934;2023-11-21T10:19:46;7.20;;;4.60;;
15449;SDS011;7826;49.784;9.934;2023-11-21T10:22:16;6.20;;;4.73;;
15449;SDS011;7826;49.784;9.934;2023-11-21T10:24:43;5.87;;;4.63;;
15449;SDS011;7826;49.784;9.934;2023-11-21T10:27:09;7.53;;;5.03;;
15449;SDS011;7826;49.784;9.934;2023-11-21T10:29:36;6.70;;;5.30;;
15449;SDS011;7826;49.784;9.934;2023-11-21T10:32:02;8.03;;;5.50;;
15449;SDS011;7826;49.784;9.934;2023-11-21T10:34:29;6.07;;;4.70;;
15449;SDS011;7826;49.784;9.934;2023-11-21T10:36:55;7.50;;;5.30;;
15449;SDS011;7826;49.784;9.934;2023-11-21T10:39:24;6.43;;;5.07;;
15449;SDS011;7826;49.784;9.934;2023-11-21T10:41:54;6.87;;;4.97;;
15449;SDS011;7826;49.784;9.934;2023-11-21T10:44:21;7.33;;;5.33;;
15449;SDS011;7826;49.784;9.934;2023-11-21T10:46:52;7.10;;;4.90;;
15449;SDS011;7826;49.784;9.934;2023-11-21T10:49:25;7.23;;;5.20;;
15449;SDS011;7826;49.784;9.934;2023-11-21T10:51:53;8.80;;;5.10;;
15449;SDS011;7826;49.784;9.934;2023-11-21T10:54:20;7.83;;;5.97;;
15449;SDS011;7826;49.784;9.934;2023-11-21T10:56:48;8.43;;;5.53;;
15449;SDS011;7826;49.784;9.934;2023-11-21T10:59:19;5.90;;;4.90;;
15449;SDS011;7826;49.784;9.934;2023-11-21T11:01:51;6.63;;;5.00;;
15449;SDS011;7826;49.784;9.934;2023-11-21T11:04:19;6.03;;;5.07;;
15449;SDS011;7826;49.784;9.934;2023-11-21T11:06:45;7.13;;;5.17;;
15449;SDS011;7826;49.784;9.934;2023-11-21T11:09:17;7.10;;;5.20;;
15449;SDS011;7826;49.784;9.934;2023-11-21T11:11:45;7.13;;;6.03;;
15449;SDS011;7826;49.784;9.934;2023-11-21T11:14:12;7.27;;;6.00;;
15449;SDS011;7826;49.784;9.934;2023-11-21T11:16:40;8.03;;;5.73;;
15449;SDS011;7826;49.784;9.934;2023-11-21T11:19:07;7.57;;;5.57;;
15449;SDS011;7826;49.784;9.934;2023-11-21T11:30:15;7.77;;;5.80;;
15449;SDS011;7826;49.784;9.934;2023-11-21T11:38:34;9.13;;;5.97;;
15449;SDS011;7826;49.784;9.934;2023-11-21T11:41:02;7.50;;;6.00;;
15449;SDS011;7826;49.784;9.934;2023-11-21T11:43:30;7.87;;;5.57;;
15449;SDS011;7826;49.784;9.934;2023-11-21T11:46:10;6.77;;;5.10;;
15449;SDS011;7826;49.784;9.934;2023-11-21T11:48:39;7.07;;;5.47;;
15449;SDS011;7826;49.784;9.934;2023-11-21T11:51:13;9.80;;;5.87;;
15449;SDS011;7826;49.784;9.934;2023-11-21T11:53:46;10.10;;;6.80;;
15449;SDS011;7826;49.784;9.934;2023-11-21T11:58:49;9.43;;;7.00;;
15449;SDS011;7826;49.784;9.934;2023-11-21T12:01:21;10.33;;;6.50;;
15449;SDS011;7826;49.784;9.934;2023-11-21T12:06:43;10.30;;;7.33;;
15449;SDS011;7826;49.784;9.934;2023-11-21T12:09:12;11.27;;;7.20;;
15449;SDS011;7826;49.784;9.934;2023-11-21T12:11:45;11.07;;;7.30;;
15449;SDS011;7826;49.784;9.934;2023-11-21T12:14:12;12.90;;;7.87;;
15449;SDS011;7826;49.784;9.934;2023-11-21T12:16:40;11.03;;;7.80;;
15449;SDS011;7826;49.784;9.934;2023-11-21T12:19:09;10.73;;;7.63;;
15449;SDS011;7826;49.784;9.934;2023-11-21T12:21:38;11.93;;;7.93;;
15449;SDS011;7826;49.784;9.934;2023-11-21T12:24:10;12.33;;;8.20;;
15449;SDS011;7826;49.784;9.934;2023-11-21T12:26:39;11.00;;;7.13;;
15449;SDS011;7826;49.784;9.934;2023-11-21T12:29:06;11.63;;;7.73;;
15449;SDS011;7826;49.784;9.934;2023-11-21T12:31:36;12.10;;;8.37;;
15449;SDS011;7826;49.784;9.934;2023-11-21T12:34:03;9.70;;;6.83;;
15449;SDS011;7826;49.784;9.934;2023-11-21T12:36:30;12.83;;;7.80;;
15449;SDS011;7826;49.784;9.934;2023-11-21T12:38:57;11.07;;;8.43;;
15449;SDS011;7826;49.784;9.934;2023-11-21T12:41:23;8.87;;;6.53;;
15449;SDS011;7826;49.784;9.934;2023-11-21T12:43:50;9.37;;;6.70;;
15449;SDS011;7826;49.784;9.934;2023-11-21T12:46:16;8.17;;;6.33;;
15449;SDS011;7826;49.784;9.934;2023-11-21T12:48:43;8.07;;;5.43;;
15449;SDS011;7826;49.784;9.934;2023-11-21T12:51:13;7.60;;;5.93;;
15449;SDS011;7826;49.784;9.934;2023-11-21T12:53:42;8.43;;;6.17;;
15449;SDS011;7826;49.784;9.934;2023-11-21T12:56:12;9.57;;;6.30;;
15449;SDS011;7826;49.784;9.934;2023-11-21T12:58:39;7.67;;;6.33;;
15449;SDS011;7826;49.784;9.934;2023-11-21T13:01:10;8.03;;;5.83;;
15449;SDS011;7826;49.784;9.934;2023-11-21T13:03:45;6.33;;;5.13;;
15449;SDS011;7826;49.784;9.934;2023-11-21T13:06:14;8.53;;;5.97;;
15449;SDS011;7826;49.784;9.934;2023-11-21T13:08:42;7.00;;;5.37;;
15449;SDS011;7826;49.784;9.934;2023-11-21T13:11:11;6.67;;;5.40;;
15449;SDS011;7826;49.784;9.934;2023-11-21T13:13:40;6.33;;;4.73;;
15449;SDS011;7826;49.784;9.934;2023-11-21T13:16:11;6.47;;;5.50;;
15449;SDS011;7826;49.784;9.934;2023-11-21T13:18:38;7.67;;;5.80;;
15449;SDS011;7826;49.784;9.934;2023-11-21T13:21:08;6.53;;;5.10;;
15449;SDS011;7826;49.784;9.934;2023-11-21T13:23:43;8.23;;;5.80;;
15449;SDS011;7826;49.784;9.934;2023-11-21T13:26:11;8.87;;;6.93;;
15449;SDS011;7826;49.784;9.934;2023-11-21T13:28:40;11.07;;;7.77;;
15449;SDS011;7826;49.784;9.934;2023-11-21T13:31:11;11.83;;;8.27;;
15449;SDS011;7826;49.784;9.934;2023-11-21T13:33:52;12.77;;;8.77;;
15449;SDS011;7826;49.784;9.934;2023-11-21T13:36:22;13.17;;;8.53;;
15449;SDS011;7826;49.784;9.934;2023-11-21T13:38:50;12.70;;;8.33;;
15449;SDS011;7826;49.784;9.934;2023-11-21T13:41:18;11.60;;;8.23;;
15449;SDS011;7826;49.784;9.934;2023-11-21T13:43:45;12.80;;;8.23;;
15449;SDS011;7826;49.784;9.934;2023-11-21T13:46:15;10.33;;;7.77;;
15449;SDS011;7826;49.784;9.934;2023-11-21T13:48:48;8.90;;;6.77;;
15449;SDS011;7826;49.784;9.934;2023-11-21T13:51:22;10.90;;;7.13;;
15449;SDS011;7826;49.784;9.934;2023-11-21T13:53:57;8.73;;;6.67;;
15449;SDS011;7826;49.784;9.934;2023-11-21T13:56:24;8.37;;;6.20;;
15449;SDS011;7826;49.784;9.934;2023-11-21T13:58:54;9.77;;;6.70;;
15449;SDS011;7826;49.784;9.934;2023-11-21T14:01:22;11.13;;;7.50;;
15449;SDS011;7826;49.784;9.934;2023-11-21T14:03:59;10.70;;;7.10;;
15449;SDS011;7826;49.784;9.934;2023-11-21T14:06:48;11.03;;;7.13;;
15449;SDS011;7826;49.784;9.934;2023-11-21T14:09:18;10.57;;;6.50;;
15449;SDS011;7826;49.784;9.934;2023-11-21T14:11:50;10.80;;;6.53;;
15449;SDS011;7826;49.784;9.934;2023-11-21T14:14:18;12.00;;;7.53;;
15449;SDS011;7826;49.784;9.934;2023-11-21T14:16:46;10.87;;;7.07;;
15449;SDS011;7826;49.784;9.934;2023-11-21T14:19:13;10.53;;;7.73;;
15449;SDS011;7826;49.784;9.934;2023-11-21T14:21:45;10.47;;;7.97;;
15449;SDS011;7826;49.784;9.934;2023-11-21T14:24:13;12.77;;;8.73;;
15449;SDS011;7826;49.784;9.934;2023-11-21T14:26:43;10.87;;;7.87;;
15449;SDS011;7826;49.784;9.934;2023-11-21T14:29:15;11.70;;;8.03;;
15449;SDS011;7826;49.784;9.934;2023-11-21T14:31:46;11.77;;;8.00;;
15449;SDS011;7826;49.784;9.934;2023-11-21T14:34:13;14.07;;;8.70;;
15449;SDS011;7826;49.784;9.934;2023-11-21T14:36:41;12.40;;;8.47;;
15449;SDS011;7826;49.784;9.934;2023-11-21T14:39:09;12.80;;;9.10;;
15449;SDS011;7826;49.784;9.934;2023-11-21T14:41:46;12.30;;;8.67;;
15449;SDS011;7826;49.784;9.934;2023-11-21T14:44:12;12.47;;;9.10;;
15449;SDS011;7826;49.784;9.934;2023-11-21T14:46:41;14.50;;;9.43;;
15449;SDS011;7826;49.784;9.934;2023-11-21T14:49:12;14.77;;;8.90;;
15449;SDS011;7826;49.784;9.934;2023-11-21T14:51:50;12.90;;;8.87;;
15449;SDS011;7826;49.784;9.934;2023-11-21T14:54:33;12.97;;;8.57;;
15449;SDS011;7826;49.784;9.934;2023-11-21T14:57:09;13.90;;;9.17;;
15449;SDS011;7826;49.784;9.934;2023-11-21T14:59:44;14.10;;;9.47;;
15449;SDS011;7826;49.784;9.934;2023-11-21T15:02:14;14.63;;;9.37;;
15449;SDS011;7826;49.784;9.934;2023-11-21T15:04:42;16.43;;;9.57;;
15449;SDS011;7826;49.784;9.934;2023-11-21T15:07:09;17.67;;;9.60;;
15449;SDS011;7826;49.784;9.934;2023-11-21T15:09:39;17.77;;;9.93;;
15449;SDS011;7826;49.784;9.934;2023-11-21T15:12:10;17.07;;;9.27;;
15449;SDS011;7826;49.784;9.934;2023-11-21T15:14:41;16.43;;;9.97;;
15449;SDS011;7826;49.784;9.934;2023-11-21T15:17:09;17.00;;;10.30;;
15449;SDS011;7826;49.784;9.934;2023-11-21T15:19:35;18.67;;;10.67;;